UAL1985 KEWR-TXKF
Flight info
| Callsign | UAL1985 |
|---|---|
| Flight time | 1h 41m |
| Altitude | 31000 |
| Route | ELVAE DCT NECCK DCT DIXIE Y481 KINGG/M080F310 DCT KINER L461 BOVIC MOMOM1 |
| Aircraft | B38M/M-SDE1FGHILORVWXY/HB1 |
Departure
| Time | 2026-05-07 21:28 |
|---|---|
| Airport | Newark Liberty International Airport (KEWR) |
Arrival
| Time | 2026-05-07 23:09 |
|---|---|
| Airport | L.F. Wade International Airport (TXKF) |
| Time | Latitude | Longitude | Altitude | Speed | Heading |
|---|---|---|---|---|---|
| 2026-05-07 21:04 | 40.69603 | -74.17350 | 24 ft | 0 kts | 142° |
| 2026-05-07 21:17 | 40.69610 | -74.17358 | 24 ft | 4 kts | 139° |
| 2026-05-07 21:18 | 40.69627 | -74.17384 | 26 ft | 4 kts | 114° |
| 2026-05-07 21:18 | 40.69629 | -74.17411 | 25 ft | 4 kts | 50° |
| 2026-05-07 21:18 | 40.69625 | -74.17416 | 25 ft | 0 kts | 41° |
| 2026-05-07 21:20 | 40.69626 | -74.17416 | 25 ft | 1 kts | 41° |
| 2026-05-07 21:20 | 40.69650 | -74.17388 | 26 ft | 9 kts | 41° |
| 2026-05-07 21:21 | 40.69707 | -74.17314 | 27 ft | 12 kts | 60° |
| 2026-05-07 21:21 | 40.69747 | -74.17213 | 26 ft | 13 kts | 52° |
| 2026-05-07 21:21 | 40.69764 | -74.17111 | 27 ft | 13 kts | 135° |
| 2026-05-07 21:21 | 40.69695 | -74.17057 | 26 ft | 14 kts | 152° |
| 2026-05-07 21:22 | 40.69630 | -74.17020 | 28 ft | 15 kts | 159° |
| 2026-05-07 21:22 | 40.69523 | -74.16984 | 28 ft | 17 kts | 169° |
| 2026-05-07 21:22 | 40.69403 | -74.16973 | 27 ft | 18 kts | 181° |
| 2026-05-07 21:22 | 40.69276 | -74.17002 | 26 ft | 20 kts | 203° |
| 2026-05-07 21:23 | 40.69157 | -74.17077 | 28 ft | 16 kts | 205° |
| 2026-05-07 21:23 | 40.69085 | -74.17122 | 24 ft | 17 kts | 206° |
| 2026-05-07 21:23 | 40.68972 | -74.17194 | 26 ft | 19 kts | 205° |
| 2026-05-07 21:23 | 40.68854 | -74.17268 | 25 ft | 18 kts | 206° |
| 2026-05-07 21:24 | 40.68737 | -74.17342 | 25 ft | 19 kts | 206° |
| 2026-05-07 21:24 | 40.68613 | -74.17421 | 28 ft | 21 kts | 206° |
| 2026-05-07 21:24 | 40.68478 | -74.17507 | 25 ft | 22 kts | 206° |
| 2026-05-07 21:24 | 40.68353 | -74.17588 | 27 ft | 20 kts | 206° |
| 2026-05-07 21:25 | 40.68219 | -74.17672 | 26 ft | 22 kts | 206° |
| 2026-05-07 21:25 | 40.68077 | -74.17763 | 24 ft | 22 kts | 206° |
| 2026-05-07 21:25 | 40.67987 | -74.17820 | 24 ft | 14 kts | 205° |
| 2026-05-07 21:25 | 40.67897 | -74.17878 | 25 ft | 15 kts | 205° |
| 2026-05-07 21:26 | 40.67797 | -74.17942 | 25 ft | 17 kts | 206° |
| 2026-05-07 21:26 | 40.67687 | -74.18012 | 25 ft | 18 kts | 206° |
| 2026-05-07 21:26 | 40.67607 | -74.18040 | 27 ft | 11 kts | 161° |
| 2026-05-07 21:26 | 40.67559 | -74.17958 | 25 ft | 11 kts | 98° |
| 2026-05-07 21:27 | 40.67581 | -74.17917 | 25 ft | 6 kts | 27° |
| 2026-05-07 21:27 | 40.67748 | -74.17814 | 24 ft | 64 kts | 25° |
| 2026-05-07 21:27 | 40.68384 | -74.17412 | 26 ft | 136 kts | 25° |
| 2026-05-07 21:27 | 40.69393 | -74.16767 | 219 ft | 179 kts | 26° |
| 2026-05-07 21:28 | 40.70523 | -74.16003 | 1005 ft | 189 kts | 24° |
| 2026-05-07 21:28 | 40.71699 | -74.15069 | 1860 ft | 203 kts | 37° |
| 2026-05-07 21:28 | 40.72758 | -74.13763 | 2461 ft | 222 kts | 43° |
| 2026-05-07 21:28 | 40.73949 | -74.12313 | 2995 ft | 244 kts | 39° |
| 2026-05-07 21:29 | 40.75365 | -74.11015 | 3744 ft | 249 kts | 23° |
| 2026-05-07 21:29 | 40.77016 | -74.10386 | 4679 ft | 250 kts | 1° |
| 2026-05-07 21:29 | 40.78754 | -74.10778 | 5421 ft | 252 kts | 336° |
| 2026-05-07 21:29 | 40.80184 | -74.12055 | 6456 ft | 254 kts | 314° |
| 2026-05-07 21:30 | 40.81143 | -74.14080 | 7051 ft | 266 kts | 290° |
| 2026-05-07 21:30 | 40.81433 | -74.16429 | 8161 ft | 259 kts | 268° |
| 2026-05-07 21:30 | 40.80931 | -74.18694 | 9183 ft | 261 kts | 244° |
| 2026-05-07 21:30 | 40.79804 | -74.20596 | 10124 ft | 267 kts | 229° |
| 2026-05-07 21:31 | 40.78210 | -74.22014 | 10627 ft | 292 kts | 208° |
| 2026-05-07 21:31 | 40.76122 | -74.22645 | 10951 ft | 321 kts | 195° |
| 2026-05-07 21:31 | 40.74588 | -74.22973 | 11157 ft | 332 kts | 196° |
| 2026-05-07 21:31 | 40.72231 | -74.23514 | 11576 ft | 346 kts | 197° |
| 2026-05-07 21:32 | 40.69870 | -74.24070 | 12267 ft | 349 kts | 197° |
| 2026-05-07 21:32 | 40.67483 | -74.24630 | 13133 ft | 348 kts | 198° |
| 2026-05-07 21:32 | 40.65105 | -74.25187 | 13967 ft | 347 kts | 198° |
| 2026-05-07 21:32 | 40.62717 | -74.25744 | 14637 ft | 350 kts | 198° |
| 2026-05-07 21:33 | 40.60308 | -74.26308 | 15304 ft | 352 kts | 198° |
| 2026-05-07 21:33 | 40.57885 | -74.26875 | 15960 ft | 355 kts | 198° |
| 2026-05-07 21:33 | 40.55402 | -74.27254 | 16605 ft | 368 kts | 187° |
| 2026-05-07 21:33 | 40.52824 | -74.26633 | 17342 ft | 387 kts | 171° |
| 2026-05-07 21:34 | 40.50275 | -74.25415 | 17970 ft | 392 kts | 169° |
| 2026-05-07 21:34 | 40.48950 | -74.24776 | 18260 ft | 394 kts | 169° |
| 2026-05-07 21:34 | 40.46367 | -74.23514 | 18771 ft | 397 kts | 169° |
| 2026-05-07 21:34 | 40.43777 | -74.22237 | 19299 ft | 400 kts | 169° |
| 2026-05-07 21:35 | 40.41161 | -74.20943 | 19846 ft | 402 kts | 169° |
| 2026-05-07 21:35 | 40.38529 | -74.19640 | 20382 ft | 405 kts | 169° |
| 2026-05-07 21:35 | 40.36236 | -74.18505 | 20828 ft | 408 kts | 170° |
| 2026-05-07 21:35 | 40.34906 | -74.17835 | 21081 ft | 411 kts | 167° |
| 2026-05-07 21:36 | 40.33647 | -74.17024 | 21322 ft | 423 kts | 159° |
| 2026-05-07 21:36 | 40.31286 | -74.14587 | 21950 ft | 444 kts | 143° |
| 2026-05-07 21:36 | 40.29424 | -74.11248 | 22459 ft | 467 kts | 126° |
| 2026-05-07 21:36 | 40.28320 | -74.08141 | 22899 ft | 472 kts | 123° |
| 2026-05-07 21:37 | 40.27110 | -74.04738 | 23244 ft | 476 kts | 123° |
| 2026-05-07 21:37 | 40.25693 | -74.00804 | 23666 ft | 479 kts | 124° |
| 2026-05-07 21:37 | 40.24264 | -73.96845 | 24016 ft | 481 kts | 125° |
| 2026-05-07 21:37 | 40.23288 | -73.94145 | 24318 ft | 482 kts | 125° |
| 2026-05-07 21:38 | 40.21844 | -73.90156 | 24692 ft | 486 kts | 126° |
| 2026-05-07 21:38 | 40.20389 | -73.86145 | 25025 ft | 489 kts | 126° |
| 2026-05-07 21:38 | 40.18946 | -73.82165 | 25380 ft | 492 kts | 126° |
| 2026-05-07 21:38 | 40.17473 | -73.78111 | 25747 ft | 495 kts | 126° |
| 2026-05-07 21:39 | 40.15988 | -73.74031 | 26096 ft | 498 kts | 126° |
| 2026-05-07 21:39 | 40.14494 | -73.69933 | 26444 ft | 501 kts | 126° |
| 2026-05-07 21:39 | 40.12990 | -73.65811 | 26790 ft | 504 kts | 126° |
| 2026-05-07 21:39 | 40.11508 | -73.61758 | 27072 ft | 506 kts | 128° |
| 2026-05-07 21:40 | 40.09955 | -73.57511 | 27457 ft | 508 kts | 128° |
| 2026-05-07 21:40 | 40.08422 | -73.53329 | 27767 ft | 512 kts | 128° |
| 2026-05-07 21:40 | 40.06883 | -73.49137 | 28103 ft | 514 kts | 128° |
| 2026-05-07 21:40 | 40.05854 | -73.46338 | 28317 ft | 516 kts | 128° |
| 2026-05-07 21:41 | 40.04297 | -73.42104 | 28633 ft | 519 kts | 128° |
| 2026-05-07 21:41 | 40.02729 | -73.37850 | 28946 ft | 522 kts | 128° |
| 2026-05-07 21:41 | 40.01151 | -73.33574 | 29251 ft | 524 kts | 128° |
| 2026-05-07 21:41 | 39.99560 | -73.29269 | 29503 ft | 527 kts | 128° |
| 2026-05-07 21:42 | 39.97966 | -73.24958 | 29880 ft | 528 kts | 128° |
| 2026-05-07 21:42 | 39.96367 | -73.20644 | 30132 ft | 530 kts | 128° |
| 2026-05-07 21:42 | 39.94756 | -73.16304 | 30363 ft | 533 kts | 128° |
| 2026-05-07 21:42 | 39.93138 | -73.11952 | 30655 ft | 534 kts | 128° |
| 2026-05-07 21:43 | 39.91516 | -73.07593 | 30878 ft | 536 kts | 128° |
| 2026-05-07 21:43 | 39.89884 | -73.03217 | 30886 ft | 535 kts | 128° |
| 2026-05-07 21:43 | 39.86664 | -72.94597 | 30822 ft | 533 kts | 128° |
| 2026-05-07 21:44 | 39.83414 | -72.85919 | 30850 ft | 535 kts | 128° |
| 2026-05-07 21:44 | 39.81933 | -72.81427 | 30867 ft | 547 kts | 121° |
| 2026-05-07 21:44 | 39.80650 | -72.76770 | 30900 ft | 548 kts | 121° |
| 2026-05-07 21:45 | 39.78106 | -72.67419 | 30871 ft | 548 kts | 120° |
| 2026-05-07 21:45 | 39.75568 | -72.58086 | 30803 ft | 548 kts | 121° |
| 2026-05-07 21:46 | 39.73027 | -72.48776 | 30873 ft | 547 kts | 121° |
| 2026-05-07 21:46 | 39.70479 | -72.39474 | 30870 ft | 546 kts | 121° |
| 2026-05-07 21:47 | 39.67922 | -72.30170 | 30866 ft | 546 kts | 121° |
| 2026-05-07 21:47 | 39.65246 | -72.20996 | 30848 ft | 530 kts | 130° |
| 2026-05-07 21:48 | 39.63212 | -72.17204 | 30872 ft | 498 kts | 146° |
| 2026-05-07 21:48 | 39.60897 | -72.13862 | 30851 ft | 500 kts | 145° |
| 2026-05-07 21:48 | 39.56265 | -72.07240 | 30871 ft | 498 kts | 146° |
| 2026-05-07 21:49 | 39.51557 | -72.00658 | 30868 ft | 497 kts | 147° |
| 2026-05-07 21:49 | 39.46839 | -71.94095 | 30831 ft | 497 kts | 146° |
| 2026-05-07 21:50 | 39.42124 | -71.87552 | 30846 ft | 494 kts | 146° |
| 2026-05-07 21:50 | 39.37447 | -71.81077 | 30860 ft | 492 kts | 147° |
| 2026-05-07 21:51 | 39.32798 | -71.74653 | 30862 ft | 492 kts | 147° |
| 2026-05-07 21:51 | 39.28114 | -71.68196 | 30865 ft | 492 kts | 147° |
| 2026-05-07 21:52 | 39.23430 | -71.61749 | 30860 ft | 492 kts | 147° |
| 2026-05-07 21:52 | 39.18653 | -71.55505 | 30823 ft | 482 kts | 149° |
| 2026-05-07 21:53 | 39.13686 | -71.49688 | 30860 ft | 482 kts | 149° |
| 2026-05-07 21:53 | 39.08697 | -71.43896 | 30859 ft | 482 kts | 149° |
| 2026-05-07 21:54 | 39.03708 | -71.38118 | 30856 ft | 482 kts | 149° |
| 2026-05-07 21:54 | 38.98751 | -71.32388 | 30861 ft | 482 kts | 149° |
| 2026-05-07 21:55 | 38.93753 | -71.26623 | 30829 ft | 482 kts | 149° |
| 2026-05-07 21:55 | 38.88771 | -71.20887 | 30851 ft | 480 kts | 149° |
| 2026-05-07 21:56 | 38.83789 | -71.15163 | 30853 ft | 480 kts | 149° |
| 2026-05-07 21:56 | 38.78810 | -71.09453 | 30853 ft | 480 kts | 149° |
| 2026-05-07 21:57 | 38.73827 | -71.03750 | 30853 ft | 480 kts | 149° |
| 2026-05-07 21:57 | 38.68873 | -70.98091 | 30854 ft | 480 kts | 149° |
| 2026-05-07 21:58 | 38.63882 | -70.92401 | 30843 ft | 481 kts | 148° |
| 2026-05-07 21:58 | 38.58877 | -70.86706 | 30815 ft | 482 kts | 148° |
| 2026-05-07 21:59 | 38.53823 | -70.80967 | 30840 ft | 488 kts | 148° |
| 2026-05-07 21:59 | 38.48745 | -70.75211 | 30848 ft | 487 kts | 148° |
| 2026-05-07 22:00 | 38.43670 | -70.69471 | 30848 ft | 487 kts | 148° |
| 2026-05-07 22:00 | 38.38621 | -70.63770 | 30828 ft | 487 kts | 148° |
| 2026-05-07 22:01 | 38.33544 | -70.58050 | 30842 ft | 487 kts | 148° |
| 2026-05-07 22:01 | 38.28460 | -70.52333 | 30834 ft | 486 kts | 148° |
| 2026-05-07 22:02 | 38.23394 | -70.46646 | 30842 ft | 485 kts | 148° |
| 2026-05-07 22:02 | 38.18371 | -70.41015 | 30842 ft | 485 kts | 148° |
| 2026-05-07 22:03 | 38.13368 | -70.35242 | 30837 ft | 491 kts | 142° |
| 2026-05-07 22:03 | 38.08664 | -70.28864 | 30813 ft | 498 kts | 141° |
| 2026-05-07 22:04 | 38.03932 | -70.22409 | 30833 ft | 499 kts | 141° |
| 2026-05-07 22:04 | 37.99187 | -70.15951 | 30816 ft | 503 kts | 141° |
| 2026-05-07 22:05 | 37.94375 | -70.09412 | 30826 ft | 509 kts | 141° |
| 2026-05-07 22:05 | 37.89574 | -70.02902 | 30823 ft | 509 kts | 141° |
| 2026-05-07 22:06 | 37.84736 | -69.96356 | 30826 ft | 509 kts | 141° |
| 2026-05-07 22:06 | 37.79899 | -69.89824 | 30806 ft | 508 kts | 141° |
| 2026-05-07 22:07 | 37.75066 | -69.83312 | 30806 ft | 507 kts | 141° |
| 2026-05-07 22:07 | 37.70242 | -69.76825 | 30807 ft | 506 kts | 141° |
| 2026-05-07 22:08 | 37.65412 | -69.70343 | 30814 ft | 506 kts | 141° |
| 2026-05-07 22:08 | 37.60579 | -69.63870 | 30806 ft | 506 kts | 141° |
| 2026-05-07 22:09 | 37.55747 | -69.57412 | 30804 ft | 506 kts | 141° |
| 2026-05-07 22:09 | 37.50911 | -69.50960 | 30787 ft | 507 kts | 140° |
| 2026-05-07 22:10 | 37.46071 | -69.44518 | 30800 ft | 510 kts | 139° |
| 2026-05-07 22:10 | 37.41192 | -69.38036 | 30804 ft | 510 kts | 140° |
| 2026-05-07 22:11 | 37.36310 | -69.31564 | 30806 ft | 510 kts | 140° |
| 2026-05-07 22:11 | 37.31422 | -69.25096 | 30808 ft | 510 kts | 140° |
| 2026-05-07 22:12 | 37.26533 | -69.18641 | 30794 ft | 510 kts | 140° |
| 2026-05-07 22:12 | 37.21588 | -69.12126 | 30791 ft | 520 kts | 140° |
| 2026-05-07 22:13 | 37.16572 | -69.05528 | 30814 ft | 523 kts | 140° |
| 2026-05-07 22:13 | 37.11545 | -68.98931 | 30828 ft | 523 kts | 140° |
| 2026-05-07 22:14 | 37.06544 | -68.92381 | 30829 ft | 523 kts | 140° |
| 2026-05-07 22:14 | 37.01511 | -68.85801 | 30809 ft | 523 kts | 140° |
| 2026-05-07 22:15 | 36.96459 | -68.79213 | 30839 ft | 524 kts | 140° |
| 2026-05-07 22:15 | 36.91402 | -68.72630 | 30830 ft | 526 kts | 140° |
| 2026-05-07 22:16 | 36.86354 | -68.66072 | 30850 ft | 527 kts | 140° |
| 2026-05-07 22:16 | 36.81262 | -68.59471 | 30856 ft | 527 kts | 140° |
| 2026-05-07 22:17 | 36.76175 | -68.52889 | 30851 ft | 527 kts | 140° |
| 2026-05-07 22:17 | 36.71129 | -68.46373 | 30868 ft | 518 kts | 139° |
| 2026-05-07 22:18 | 36.63615 | -68.36692 | 30874 ft | 518 kts | 139° |
| 2026-05-07 22:19 | 36.58599 | -68.30244 | 30881 ft | 519 kts | 140° |
| 2026-05-07 22:19 | 36.53131 | -68.24555 | 30889 ft | 512 kts | 147° |
| 2026-05-07 22:20 | 36.47531 | -68.19073 | 30896 ft | 511 kts | 147° |
| 2026-05-07 22:20 | 36.42031 | -68.13708 | 30891 ft | 503 kts | 147° |
| 2026-05-07 22:21 | 36.36516 | -68.08339 | 30895 ft | 503 kts | 147° |
| 2026-05-07 22:21 | 36.31000 | -68.02979 | 30895 ft | 503 kts | 147° |
| 2026-05-07 22:22 | 36.25514 | -67.97659 | 30899 ft | 503 kts | 147° |
| 2026-05-07 22:22 | 36.19996 | -67.92316 | 30906 ft | 503 kts | 147° |
| 2026-05-07 22:23 | 36.14481 | -67.86988 | 30912 ft | 503 kts | 147° |
| 2026-05-07 22:23 | 36.08960 | -67.81662 | 30912 ft | 503 kts | 147° |
| 2026-05-07 22:24 | 36.03439 | -67.76347 | 30915 ft | 502 kts | 147° |
| 2026-05-07 22:24 | 35.97913 | -67.71035 | 30922 ft | 502 kts | 147° |
| 2026-05-07 22:25 | 35.92392 | -67.65739 | 30931 ft | 502 kts | 147° |
| 2026-05-07 22:25 | 35.86873 | -67.60455 | 30933 ft | 502 kts | 148° |
| 2026-05-07 22:26 | 35.81381 | -67.55206 | 30937 ft | 502 kts | 148° |
| 2026-05-07 22:26 | 35.75850 | -67.49929 | 30922 ft | 503 kts | 147° |
| 2026-05-07 22:27 | 35.70299 | -67.44642 | 30942 ft | 504 kts | 147° |
| 2026-05-07 22:27 | 35.64742 | -67.39359 | 30948 ft | 504 kts | 147° |
| 2026-05-07 22:28 | 35.59185 | -67.34087 | 30956 ft | 504 kts | 147° |
| 2026-05-07 22:28 | 35.53629 | -67.28823 | 30952 ft | 504 kts | 147° |
| 2026-05-07 22:29 | 35.48093 | -67.23589 | 30951 ft | 505 kts | 147° |
| 2026-05-07 22:29 | 35.42519 | -67.18328 | 30959 ft | 505 kts | 147° |
| 2026-05-07 22:30 | 35.37888 | -67.13964 | 30971 ft | 504 kts | 147° |
| 2026-05-07 22:30 | 35.32315 | -67.08722 | 30974 ft | 505 kts | 147° |
| 2026-05-07 22:31 | 35.26749 | -67.03495 | 30971 ft | 504 kts | 147° |
| 2026-05-07 22:31 | 35.21170 | -66.98265 | 30983 ft | 504 kts | 147° |
| 2026-05-07 22:32 | 35.15627 | -66.93078 | 30983 ft | 505 kts | 147° |
| 2026-05-07 22:32 | 35.10043 | -66.87862 | 30983 ft | 505 kts | 147° |
| 2026-05-07 22:33 | 35.04469 | -66.82665 | 30988 ft | 504 kts | 147° |
| 2026-05-07 22:33 | 34.98897 | -66.77477 | 30995 ft | 504 kts | 147° |
| 2026-05-07 22:34 | 34.93330 | -66.72302 | 30998 ft | 503 kts | 147° |
| 2026-05-07 22:34 | 34.87734 | -66.67137 | 30996 ft | 504 kts | 150° |
| 2026-05-07 22:35 | 34.81865 | -66.62514 | 31008 ft | 503 kts | 152° |
| 2026-05-07 22:35 | 34.76024 | -66.57831 | 31013 ft | 502 kts | 151° |
| 2026-05-07 22:36 | 34.70231 | -66.53168 | 31014 ft | 502 kts | 151° |
| 2026-05-07 22:36 | 34.64389 | -66.48473 | 31020 ft | 502 kts | 151° |
| 2026-05-07 22:37 | 34.58556 | -66.43792 | 31019 ft | 503 kts | 151° |
| 2026-05-07 22:37 | 34.52709 | -66.39108 | 31022 ft | 503 kts | 151° |
| 2026-05-07 22:38 | 34.46867 | -66.34436 | 31024 ft | 503 kts | 151° |
| 2026-05-07 22:38 | 34.41045 | -66.29789 | 31031 ft | 503 kts | 151° |
| 2026-05-07 22:39 | 34.35192 | -66.25124 | 31033 ft | 503 kts | 151° |
| 2026-05-07 22:39 | 34.29337 | -66.20465 | 31041 ft | 504 kts | 151° |
| 2026-05-07 22:40 | 34.23473 | -66.15807 | 31043 ft | 504 kts | 151° |
| 2026-05-07 22:40 | 34.17632 | -66.11182 | 31049 ft | 504 kts | 151° |
| 2026-05-07 22:41 | 34.11761 | -66.06555 | 31047 ft | 504 kts | 151° |
| 2026-05-07 22:41 | 34.05892 | -66.01936 | 31021 ft | 504 kts | 151° |
| 2026-05-07 22:41 | 34.02955 | -65.99627 | 30868 ft | 503 kts | 151° |
| 2026-05-07 22:42 | 34.00020 | -65.97322 | 30618 ft | 501 kts | 151° |
| 2026-05-07 22:42 | 33.97125 | -65.95050 | 30206 ft | 493 kts | 151° |
| 2026-05-07 22:42 | 33.94305 | -65.92839 | 29708 ft | 486 kts | 151° |
| 2026-05-07 22:42 | 33.91487 | -65.90631 | 29202 ft | 480 kts | 151° |
| 2026-05-07 22:43 | 33.88707 | -65.88454 | 28710 ft | 474 kts | 151° |
| 2026-05-07 22:43 | 33.85953 | -65.86300 | 28224 ft | 469 kts | 151° |
| 2026-05-07 22:43 | 33.83233 | -65.84174 | 27742 ft | 464 kts | 151° |
| 2026-05-07 22:43 | 33.80530 | -65.82063 | 27267 ft | 460 kts | 151° |
| 2026-05-07 22:44 | 33.77855 | -65.79975 | 26799 ft | 455 kts | 150° |
| 2026-05-07 22:44 | 33.75211 | -65.77913 | 26331 ft | 451 kts | 150° |
| 2026-05-07 22:44 | 33.72591 | -65.75871 | 25885 ft | 447 kts | 150° |
| 2026-05-07 22:44 | 33.69987 | -65.73843 | 25442 ft | 443 kts | 150° |
| 2026-05-07 22:45 | 33.67439 | -65.71861 | 25021 ft | 440 kts | 150° |
| 2026-05-07 22:45 | 33.64878 | -65.69870 | 24595 ft | 436 kts | 150° |
| 2026-05-07 22:45 | 33.62340 | -65.67897 | 24225 ft | 432 kts | 150° |
| 2026-05-07 22:45 | 33.59823 | -65.65943 | 23903 ft | 434 kts | 150° |
| 2026-05-07 22:46 | 33.57243 | -65.63942 | 23514 ft | 449 kts | 150° |
| 2026-05-07 22:46 | 33.54576 | -65.61875 | 23052 ft | 464 kts | 150° |
| 2026-05-07 22:46 | 33.51830 | -65.59747 | 22588 ft | 472 kts | 150° |
| 2026-05-07 22:46 | 33.49063 | -65.57604 | 22142 ft | 475 kts | 150° |
| 2026-05-07 22:47 | 33.46290 | -65.55459 | 21678 ft | 473 kts | 150° |
| 2026-05-07 22:47 | 33.43536 | -65.53330 | 21198 ft | 469 kts | 150° |
| 2026-05-07 22:47 | 33.40803 | -65.51220 | 20706 ft | 465 kts | 150° |
| 2026-05-07 22:47 | 33.38125 | -65.49153 | 20385 ft | 462 kts | 150° |
| 2026-05-07 22:48 | 33.35445 | -65.47085 | 20090 ft | 448 kts | 150° |
| 2026-05-07 22:48 | 33.32881 | -65.45109 | 19645 ft | 430 kts | 150° |
| 2026-05-07 22:48 | 33.30404 | -65.43202 | 19134 ft | 417 kts | 150° |
| 2026-05-07 22:48 | 33.27999 | -65.41351 | 18626 ft | 405 kts | 151° |
| 2026-05-07 22:49 | 33.25656 | -65.39549 | 18077 ft | 395 kts | 151° |
| 2026-05-07 22:49 | 33.23373 | -65.37793 | 17492 ft | 386 kts | 151° |
| 2026-05-07 22:49 | 33.21161 | -65.36094 | 16919 ft | 378 kts | 151° |
| 2026-05-07 22:49 | 33.18967 | -65.34409 | 16351 ft | 371 kts | 150° |
| 2026-05-07 22:50 | 33.16812 | -65.32756 | 15790 ft | 365 kts | 150° |
| 2026-05-07 22:50 | 33.14692 | -65.31130 | 15238 ft | 359 kts | 150° |
| 2026-05-07 22:50 | 33.12604 | -65.29530 | 14694 ft | 354 kts | 149° |
| 2026-05-07 22:50 | 33.10545 | -65.27953 | 14160 ft | 350 kts | 149° |
| 2026-05-07 22:51 | 33.08510 | -65.26395 | 13587 ft | 345 kts | 149° |
| 2026-05-07 22:51 | 33.06507 | -65.24839 | 13013 ft | 342 kts | 145° |
| 2026-05-07 22:51 | 33.04790 | -65.22891 | 12419 ft | 340 kts | 133° |
| 2026-05-07 22:51 | 33.03192 | -65.20830 | 11851 ft | 336 kts | 134° |
| 2026-05-07 22:52 | 33.01603 | -65.18798 | 11289 ft | 333 kts | 134° |
| 2026-05-07 22:52 | 33.00040 | -65.16805 | 10970 ft | 322 kts | 134° |
| 2026-05-07 22:52 | 32.98549 | -65.14904 | 10795 ft | 306 kts | 134° |
| 2026-05-07 22:52 | 32.97132 | -65.13100 | 10617 ft | 292 kts | 134° |
| 2026-05-07 22:53 | 32.95769 | -65.11365 | 10448 ft | 286 kts | 134° |
| 2026-05-07 22:53 | 32.94396 | -65.09618 | 10311 ft | 298 kts | 134° |
| 2026-05-07 22:53 | 32.92966 | -65.07799 | 10148 ft | 303 kts | 134° |
| 2026-05-07 22:53 | 32.91520 | -65.05963 | 9996 ft | 304 kts | 134° |
| 2026-05-07 22:54 | 32.90077 | -65.04129 | 9826 ft | 303 kts | 134° |
| 2026-05-07 22:54 | 32.88633 | -65.02297 | 9645 ft | 302 kts | 134° |
| 2026-05-07 22:54 | 32.87199 | -65.00477 | 9477 ft | 300 kts | 134° |
| 2026-05-07 22:54 | 32.85770 | -64.98665 | 9398 ft | 298 kts | 134° |
| 2026-05-07 22:55 | 32.84350 | -64.96865 | 9388 ft | 299 kts | 134° |
| 2026-05-07 22:55 | 32.82944 | -64.95083 | 9388 ft | 299 kts | 134° |
| 2026-05-07 22:55 | 32.81519 | -64.93276 | 9387 ft | 299 kts | 134° |
| 2026-05-07 22:55 | 32.80097 | -64.91477 | 9386 ft | 298 kts | 134° |
| 2026-05-07 22:56 | 32.78676 | -64.89682 | 9389 ft | 298 kts | 134° |
| 2026-05-07 22:56 | 32.77254 | -64.87884 | 9393 ft | 299 kts | 134° |
| 2026-05-07 22:56 | 32.75828 | -64.86082 | 9391 ft | 299 kts | 134° |
| 2026-05-07 22:56 | 32.74404 | -64.84282 | 9391 ft | 298 kts | 134° |
| 2026-05-07 22:57 | 32.72981 | -64.82486 | 9392 ft | 298 kts | 134° |
| 2026-05-07 22:57 | 32.71584 | -64.80723 | 9373 ft | 287 kts | 134° |
| 2026-05-07 22:57 | 32.70249 | -64.79039 | 9359 ft | 276 kts | 134° |
| 2026-05-07 22:57 | 32.68921 | -64.77365 | 9371 ft | 285 kts | 134° |
| 2026-05-07 22:58 | 32.67536 | -64.75621 | 9353 ft | 294 kts | 134° |
| 2026-05-07 22:58 | 32.66144 | -64.73867 | 9302 ft | 297 kts | 134° |
| 2026-05-07 22:58 | 32.64724 | -64.72079 | 9206 ft | 298 kts | 134° |
| 2026-05-07 22:58 | 32.63305 | -64.70295 | 8984 ft | 297 kts | 134° |
| 2026-05-07 22:59 | 32.61882 | -64.68504 | 8662 ft | 298 kts | 134° |
| 2026-05-07 22:59 | 32.60455 | -64.66711 | 8337 ft | 298 kts | 135° |
| 2026-05-07 22:59 | 32.59037 | -64.64930 | 8012 ft | 297 kts | 135° |
| 2026-05-07 22:59 | 32.57620 | -64.63151 | 7692 ft | 296 kts | 135° |
| 2026-05-07 23:00 | 32.56212 | -64.61384 | 7373 ft | 294 kts | 135° |
| 2026-05-07 23:00 | 32.54824 | -64.59642 | 7061 ft | 288 kts | 135° |
| 2026-05-07 23:00 | 32.53465 | -64.57938 | 6765 ft | 282 kts | 135° |
| 2026-05-07 23:00 | 32.52130 | -64.56264 | 6463 ft | 276 kts | 135° |
| 2026-05-07 23:01 | 32.50823 | -64.54626 | 6156 ft | 271 kts | 135° |
| 2026-05-07 23:01 | 32.49529 | -64.53005 | 5862 ft | 269 kts | 135° |
| 2026-05-07 23:01 | 32.48269 | -64.51367 | 5565 ft | 269 kts | 133° |
| 2026-05-07 23:01 | 32.47032 | -64.49709 | 5286 ft | 268 kts | 134° |
| 2026-05-07 23:02 | 32.45817 | -64.48085 | 5137 ft | 258 kts | 134° |
| 2026-05-07 23:02 | 32.44674 | -64.46561 | 5012 ft | 244 kts | 134° |
| 2026-05-07 23:02 | 32.43578 | -64.45103 | 4982 ft | 229 kts | 134° |
| 2026-05-07 23:02 | 32.42542 | -64.43742 | 4864 ft | 216 kts | 137° |
| 2026-05-07 23:03 | 32.41457 | -64.42558 | 4605 ft | 209 kts | 142° |
| 2026-05-07 23:03 | 32.40382 | -64.41423 | 4332 ft | 203 kts | 142° |
| 2026-05-07 23:03 | 32.39192 | -64.40689 | 4063 ft | 190 kts | 175° |
| 2026-05-07 23:03 | 32.37928 | -64.40864 | 3838 ft | 182 kts | 206° |
| 2026-05-07 23:04 | 32.36937 | -64.41770 | 3707 ft | 181 kts | 231° |
| 2026-05-07 23:04 | 32.36163 | -64.42951 | 3643 ft | 181 kts | 234° |
| 2026-05-07 23:04 | 32.35414 | -64.44151 | 3480 ft | 181 kts | 234° |
| 2026-05-07 23:04 | 32.34684 | -64.45353 | 3290 ft | 179 kts | 235° |
| 2026-05-07 23:05 | 32.33975 | -64.46539 | 3111 ft | 177 kts | 235° |
| 2026-05-07 23:05 | 32.33381 | -64.47805 | 2906 ft | 175 kts | 256° |
| 2026-05-07 23:05 | 32.33300 | -64.49211 | 2752 ft | 170 kts | 271° |
| 2026-05-07 23:05 | 32.33454 | -64.50592 | 2551 ft | 168 kts | 277° |
| 2026-05-07 23:06 | 32.33672 | -64.51952 | 2367 ft | 168 kts | 278° |
| 2026-05-07 23:06 | 32.33901 | -64.53307 | 2159 ft | 168 kts | 278° |
| 2026-05-07 23:06 | 32.34130 | -64.54635 | 1956 ft | 169 kts | 279° |
| 2026-05-07 23:06 | 32.34364 | -64.56005 | 1720 ft | 168 kts | 279° |
| 2026-05-07 23:07 | 32.34595 | -64.57342 | 1519 ft | 163 kts | 279° |
| 2026-05-07 23:07 | 32.34812 | -64.58609 | 1321 ft | 148 kts | 279° |
| 2026-05-07 23:07 | 32.35011 | -64.59775 | 1098 ft | 143 kts | 279° |
| 2026-05-07 23:07 | 32.35211 | -64.60933 | 918 ft | 144 kts | 279° |
| 2026-05-07 23:08 | 32.35412 | -64.62095 | 742 ft | 145 kts | 279° |
| 2026-05-07 23:08 | 32.35621 | -64.63266 | 592 ft | 142 kts | 278° |
| 2026-05-07 23:08 | 32.35806 | -64.64406 | 354 ft | 146 kts | 279° |
| 2026-05-07 23:08 | 32.36012 | -64.65574 | 197 ft | 143 kts | 278° |
| 2026-05-07 23:09 | 32.36202 | -64.66694 | 38 ft | 131 kts | 279° |
| 2026-05-07 23:09 | 32.36356 | -64.67597 | 28 ft | 83 kts | 281° |
| 2026-05-07 23:09 | 32.36438 | -64.68077 | 30 ft | 51 kts | 282° |
| 2026-05-07 23:09 | 32.36507 | -64.68467 | 31 ft | 40 kts | 282° |
| 2026-05-07 23:10 | 32.36530 | -64.68605 | 30 ft | 0 kts | 280° |
| 2026-05-07 23:10 | 32.36539 | -64.68659 | 31 ft | 16 kts | 281° |
| 2026-05-07 23:10 | 32.36570 | -64.68838 | 28 ft | 29 kts | 281° |
| 2026-05-07 23:10 | 32.36614 | -64.69113 | 28 ft | 39 kts | 272° |
| 2026-05-07 23:11 | 32.36538 | -64.69389 | 28 ft | 27 kts | 247° |
| 2026-05-07 23:11 | 32.36472 | -64.69577 | 27 ft | 21 kts | 248° |
| 2026-05-07 23:11 | 32.36414 | -64.69742 | 27 ft | 23 kts | 247° |
| 2026-05-07 23:11 | 32.36350 | -64.69920 | 27 ft | 24 kts | 246° |
| 2026-05-07 23:12 | 32.36300 | -64.70061 | 27 ft | 17 kts | 248° |
| 2026-05-07 23:12 | 32.36277 | -64.70129 | 27 ft | 5 kts | 247° |
| 2026-05-07 23:12 | 32.36268 | -64.70175 | 27 ft | 7 kts | 279° |
| 2026-05-07 23:12 | 32.36305 | -64.70212 | 27 ft | 8 kts | 322° |
| 2026-05-07 23:13 | 32.36311 | -64.70243 | 27 ft | 2 kts | 259° |
| 2026-05-07 23:13 | 32.36306 | -64.70260 | 27 ft | 1 kts | 245° |
| 2026-05-07 23:13 | 32.36302 | -64.70273 | 27 ft | 2 kts | 248° |
| 2026-05-07 23:13 | 32.36300 | -64.70278 | 27 ft | 0 kts | 248° |
| 2026-05-07 23:14 | 32.36299 | -64.70282 | 27 ft | 2 kts | 248° |
| 2026-05-07 23:14 | 32.36291 | -64.70305 | 27 ft | 3 kts | 247° |
| 2026-05-07 23:14 | 32.36284 | -64.70323 | 27 ft | 1 kts | 247° |
| 2026-05-07 23:14 | 32.36284 | -64.70324 | 27 ft | 0 kts | 247° |